CMA CGM La Boussole — A8FZ6 — position and weather

sailwx.info

Track history (hours):
 
Tides and Currents Weather Stations Pressure Air Temp Water Temp Dewpoint Dewpoint Depression Visibility Wind Speed Wind Dir Waves Ship Positions

CMA CGM La Boussole

Last reported at 2016-Jul-25 04:32 UTC. Time now 2016-Jul-25 06:12 UTC.
Position N 39°27' W 000°19'.

Length 210.1 m; beam 30.2 m; draft 11.5 m.

Type: Ship (hazmat cat A). MMSI: 636017045.

Date/timePositionNaut miles runAvg speedWind from/ knotsBaromVisibWave heightAir tempDewpointWater temp
2016-Jul-25 04:32N 39°27' W 000°19'0 0.0
2016-Jul-25 03:32N 39°27' W 000°19'0 0.0
2016-Jul-25 02:32N 39°27' W 000°19'0 0.0
2016-Jul-25 01:32N 39°27' W 000°19'0 0.0
2016-Jul-25 00:32N 39°27' W 000°19'0 0.0
2016-Jul-24 23:32N 39°27' W 000°19'0 0.0
2016-Jul-24 22:32N 39°27' W 000°19'0 0.0
2016-Jul-24 21:32N 39°27' W 000°19'0 0.0
2016-Jul-24 20:32N 39°27' W 000°19'0 0.0
2016-Jul-24 19:32N 39°27' W 000°19'0 0.0
2016-Jul-24 18:29N 39°27' W 000°19'0 0.0
2016-Jul-24 17:32N 39°27' W 000°19'0 0.0
2016-Jul-24 16:29N 39°27' W 000°19'0 0.0
2016-Jul-24 15:32N 39°27' W 000°19'0 0.0
2016-Jul-24 14:32N 39°27' W 000°19'0 0.0
2016-Jul-24 13:32N 39°27' W 000°19'0 0.0
2016-Jul-24 12:32N 39°27' W 000°19'0 0.0
2016-Jul-24 11:32N 39°27' W 000°19'0 0.0
2016-Jul-24 10:32N 39°27' W 000°19'0 0.0
2016-Jul-24 09:32N 39°27' W 000°19'0 0.0
2016-Jul-24 08:32N 39°27' W 000°19'0 0.0
2016-Jul-24 07:32N 39°27' W 000°19'0 0.0
2016-Jul-24 06:32N 39°27' W 000°19'0 0.0
2016-Jul-24 05:32N 39°27' W 000°19'0 0.0
2016-Jul-24 04:32N 39°27' W 000°19'3 2.9
2016-Jul-24 03:33N 39°25' W 000°16'1 0.1
2016-Jul-23 16:25N 39°24' W 000°16'9 9.5
2016-Jul-23 15:30N 39°30' W 000°08'7815.7
2016-Jul-23 10:33N 40°22' E 001°08'1414.4
2016-Jul-23 09:33N 40°32' E 001°21'2019.4
2016-Jul-23 08:33N 40°47' E 001°38'2020.2
2016-Jul-23 07:33N 41°02' E 001°55'1817.9
2016-Jul-23 06:33N 41°16' E 002°10'5 1.7
2016-Jul-23 03:33N 41°21' E 002°10'0 0.0
2016-Jul-23 02:18N 41°21' E 002°10'0 0.0
2016-Jul-23 01:06N 41°21' E 002°10'0 0.0
2016-Jul-23 00:24N 41°21' E 002°10'0 0.0
2016-Jul-22 23:30N 41°21' E 002°10'0 0.0
2016-Jul-22 22:30N 41°21' E 002°10'0 0.0
2016-Jul-22 21:24N 41°21' E 002°10'0 0.0
2016-Jul-22 20:18N 41°21' E 002°10'0 0.0
2016-Jul-22 18:18N 41°21' E 002°10'1 1.4
2016-Jul-22 17:33N 41°20' E 002°10'6 5.7
2016-Jul-22 16:33N 41°17' E 002°17'1 0.8
2016-Jul-22 15:33N 41°17' E 002°18'0 0.1
2016-Jul-22 14:33N 41°17' E 002°18'1 1.2
2016-Jul-22 13:32N 41°17' E 002°16'4 4.5
2016-Jul-22 12:33N 41°17' E 002°22'1313.2
2016-Jul-22 11:33N 41°25' E 002°36'1615.9
2016-Jul-22 10:33N 41°34' E 002°54'1717.2
2016-Jul-22 09:33N 41°43' E 003°13'2017.8
2016-Jul-22 08:24N 41°58' E 003°32'9317.9
2016-Jul-22 03:12N 43°08' E 004°56'913.8
2016-Jul-22 02:33N 43°16' E 004°60'1110.6
2016-Jul-22 01:34N 43°25' E 004°51'0 0.0
2016-Jul-22 00:33N 43°25' E 004°51'0 0.0
2016-Jul-21 23:33N 43°25' E 004°51'0 0.0
2016-Jul-21 22:33N 43°25' E 004°51'0 0.0
2016-Jul-21 21:33N 43°25' E 004°51'0 0.0
2016-Jul-21 20:30N 43°25' E 004°51'0 0.0
2016-Jul-21 19:33N 43°25' E 004°51'0 0.0
2016-Jul-21 18:30N 43°25' E 004°51'0 0.0
2016-Jul-21 17:27N 43°25' E 004°51'0 0.0
2016-Jul-21 16:33N 43°25' E 004°51'0 0.0
2016-Jul-21 15:27N 43°25' E 004°51'0 0.0
2016-Jul-21 14:33N 43°25' E 004°51'0 0.0
2016-Jul-21 13:33N 43°25' E 004°51'2 1.7
2016-Jul-21 12:33N 43°24' E 004°53'9 8.7
2016-Jul-21 11:33N 43°17' E 005°00'1313.1
2016-Jul-21 10:33N 43°06' E 005°10'1614.1
2016-Jul-21 09:26N 42°58' E 005°28'3 0.9
2016-Jul-21 06:33N 42°57' E 005°32'6 6.0
2016-Jul-21 05:33N 42°55' E 005°39'1312.8
2016-Jul-21 04:33N 42°51' E 005°56'1814.6
2016-Jul-21 03:20N 42°51' E 006°20'1113.7
2016-Jul-21 02:33N 42°54' E 006°34'1515.0
2016-Jul-21 01:32N 43°03' E 006°51'1514.9
2016-Jul-21 00:33N 43°12' E 007°08'1514.7
2016-Jul-20 23:33N 43°21' E 007°24'2014.6
2016-Jul-20 22:11N 43°33' E 007°46'1014.7
2016-Jul-20 21:31N 43°38' E 007°57'1514.4
2016-Jul-20 20:28N 43°47' E 008°14'1314.3
2016-Jul-20 19:33N 43°56' E 008°27'1515.0
2016-Jul-20 18:33N 44°07' E 008°41'1817.7
2016-Jul-20 17:33N 44°20' E 008°58'5 4.7
2016-Jul-20 16:33N 44°24' E 008°54'0 0.0
2016-Jul-20 15:33N 44°24' E 008°54'0 0.0
2016-Jul-20 14:33N 44°24' E 008°54'0 0.0
2016-Jul-20 13:33N 44°24' E 008°54'0 0.0
2016-Jul-20 12:30N 44°24' E 008°54'0 0.0
2016-Jul-20 11:30N 44°24' E 008°54'0 0.0
2016-Jul-20 10:30N 44°24' E 008°54'0 0.0
2016-Jul-20 09:33N 44°24' E 008°54'0 0.0
2016-Jul-20 08:33N 44°24' E 008°54'0 0.0
2016-Jul-20 07:33N 44°24' E 008°54'0 0.0
2016-Jul-20 06:33N 44°24' E 008°54'0 0.0
2016-Jul-20 05:33N 44°24' E 008°54'0 0.0
2016-Jul-20 04:33N 44°24' E 008°54'0 0.0
2016-Jul-20 03:33N 44°24' E 008°54'0 0.0
2016-Jul-20 02:33N 44°24' E 008°54'0 0.0
2016-Jul-20 01:33N 44°24' E 008°54'0 0.0
2016-Jul-20 00:33N 44°24' E 008°54'0 0.0
2016-Jul-19 23:33N 44°24' E 008°54'0 0.0
2016-Jul-19 22:33N 44°24' E 008°54'0 0.0
2016-Jul-19 21:33N 44°24' E 008°54'0 0.0
2016-Jul-19 20:30N 44°24' E 008°54'0 0.0
2016-Jul-19 19:33N 44°24' E 008°54'4 3.6
2016-Jul-19 18:33N 44°22' E 008°58'1515.0
2016-Jul-19 17:33N 44°10' E 009°11'2020.3
2016-Jul-19 16:33N 43°55' E 009°29'2020.1
2016-Jul-19 15:33N 43°39' E 009°46'1817.5
2016-Jul-19 14:33N 43°31' E 010°07'9 8.8
2016-Jul-19 13:33N 43°34' E 010°18'0 0.4
2016-Jul-19 12:32N 43°34' E 010°18'0 0.0
2016-Jul-19 11:29N 43°34' E 010°18'0 0.0
2016-Jul-19 10:29N 43°34' E 010°18'0 0.0
2016-Jul-19 09:26N 43°34' E 010°18'0 0.0
2016-Jul-19 08:32N 43°34' E 010°18'0 0.0
2016-Jul-19 07:32N 43°34' E 010°18'0 0.0
2016-Jul-19 04:32N 43°34' E 010°18'0 0.0
2016-Jul-19 03:32N 43°34' E 010°18'0 0.0
2016-Jul-19 02:32N 43°34' E 010°18'0 0.0
2016-Jul-19 01:32N 43°34' E 010°18'0 0.0
2016-Jul-19 00:32N 43°34' E 010°18'0 0.0
2016-Jul-18 23:32N 43°34' E 010°18'0 0.0
2016-Jul-18 22:32N 43°34' E 010°18'0 0.0
2016-Jul-18 21:32N 43°34' E 010°18'0 0.0
2016-Jul-18 20:17N 43°34' E 010°18'0 0.0
2016-Jul-18 19:32N 43°34' E 010°18'0 0.0
2016-Jul-18 18:29N 43°34' E 010°18'0 0.0
2016-Jul-18 17:29N 43°34' E 010°18'0 0.0
2016-Jul-18 16:32N 43°34' E 010°18'0 0.0
2016-Jul-18 15:29N 43°34' E 010°18'0 0.0
2016-Jul-18 14:32N 43°34' E 010°18'0 0.0
2016-Jul-18 13:29N 43°34' E 010°18'0 0.0
2016-Jul-18 12:32N 43°34' E 010°18'0 0.0
2016-Jul-18 11:32N 43°34' E 010°18'0 0.0
2016-Jul-18 10:26N 43°34' E 010°18'0 0.0
2016-Jul-18 09:32N 43°34' E 010°18'4 3.9
2016-Jul-18 08:33N 43°31' E 010°16'1616.4
2016-Jul-18 07:33N 43°19' E 010°00'1817.5
2016-Jul-18 06:33N 43°14' E 009°37'1919.6
2016-Jul-18 05:33N 43°09' E 009°11'2020.1
2016-Jul-18 04:33N 42°58' E 008°48'2121.1
2016-Jul-18 03:33N 42°43' E 008°27'2121.0
2016-Jul-18 02:33N 42°28' E 008°08'4220.7
2016-Jul-18 00:31N 41°58' E 007°28'22820.3
2016-Jul-17 13:17N 39°21' E 003°50'1620.5
2016-Jul-17 12:30N 39°12' E 003°32'1920.5
2016-Jul-17 11:33N 39°02' E 003°11'2020.4
2016-Jul-17 10:33N 38°51' E 002°49'2020.3
2016-Jul-17 09:33N 38°40' E 002°27'2020.0
2016-Jul-17 08:33N 38°30' E 002°05'37019.4
2016-Jul-16 13:30N 36°04' W 005°02'1515.9
2016-Jul-16 12:33N 36°05' W 005°20'5 5.2
2016-Jul-16 11:33N 36°08' W 005°25'0 0.0
2016-Jul-16 10:30N 36°08' W 005°25'0 0.0
2016-Jul-16 09:33N 36°08' W 005°25'0 0.0
2016-Jul-16 08:30N 36°08' W 005°25'0 0.0
2016-Jul-16 07:30N 36°08' W 005°25'0 0.0
2016-Jul-16 06:31N 36°08' W 005°25'0 0.0
2016-Jul-16 04:31N 36°08' W 005°25'0 0.0
2016-Jul-16 03:31N 36°08' W 005°25'0 0.0
2016-Jul-16 02:31N 36°08' W 005°25'0 0.0
2016-Jul-16 01:31N 36°08' W 005°25'0 0.0
2016-Jul-16 00:28N 36°08' W 005°25'0 0.0
2016-Jul-15 23:31N 36°08' W 005°25'0 0.0
2016-Jul-15 22:31N 36°08' W 005°25'0 0.0
2016-Jul-15 21:28N 36°08' W 005°25'0 0.0
2016-Jul-15 20:31N 36°08' W 005°25'1 1.4
2016-Jul-15 19:33N 36°08' W 005°24'5 5.1
2016-Jul-15 18:33N 36°05' W 005°19'1 0.9
2016-Jul-15 17:33N 36°04' W 005°18'3 2.9
2016-Jul-15 16:33N 36°01' W 005°19'8 8.0
2016-Jul-15 15:33N 35°58' W 005°28'  
Track history (hours):
 
Tides and Currents Weather Stations Pressure Air Temp Water Temp Dewpoint Dewpoint Depression Visibility Wind Speed Wind Dir Waves Ship Positions

CMA CGM La Boussole

Last reported at 2016-Jul-25 04:32 UTC. Time now 2016-Jul-25 06:12 UTC.
Position N 39°27' W 000°19'.

Length 210.1 m; beam 30.2 m; draft 11.5 m.

Type: Ship (hazmat cat A). MMSI: 636017045.

Date/timePositionNaut miles runAvg speedWind from/ knotsBaromVisibWave heightAir tempDewpointWater temp
2016-Jul-25 04:32N 39°27' W 000°19'0 0.0
2016-Jul-25 03:32N 39°27' W 000°19'0 0.0
2016-Jul-25 02:32N 39°27' W 000°19'0 0.0
2016-Jul-25 01:32N 39°27' W 000°19'0 0.0
2016-Jul-25 00:32N 39°27' W 000°19'0 0.0
2016-Jul-24 23:32N 39°27' W 000°19'0 0.0
2016-Jul-24 22:32N 39°27' W 000°19'0 0.0
2016-Jul-24 21:32N 39°27' W 000°19'0 0.0
2016-Jul-24 20:32N 39°27' W 000°19'0 0.0
2016-Jul-24 19:32N 39°27' W 000°19'0 0.0
2016-Jul-24 18:29N 39°27' W 000°19'0 0.0
2016-Jul-24 17:32N 39°27' W 000°19'0 0.0
2016-Jul-24 16:29N 39°27' W 000°19'0 0.0
2016-Jul-24 15:32N 39°27' W 000°19'0 0.0
2016-Jul-24 14:32N 39°27' W 000°19'0 0.0
2016-Jul-24 13:32N 39°27' W 000°19'0 0.0
2016-Jul-24 12:32N 39°27' W 000°19'0 0.0
2016-Jul-24 11:32N 39°27' W 000°19'0 0.0
2016-Jul-24 10:32N 39°27' W 000°19'0 0.0
2016-Jul-24 09:32N 39°27' W 000°19'0 0.0
2016-Jul-24 08:32N 39°27' W 000°19'0 0.0
2016-Jul-24 07:32N 39°27' W 000°19'0 0.0
2016-Jul-24 06:32N 39°27' W 000°19'0 0.0
2016-Jul-24 05:32N 39°27' W 000°19'0 0.0
2016-Jul-24 04:32N 39°27' W 000°19'3 2.9
2016-Jul-24 03:33N 39°25' W 000°16'1 0.1
2016-Jul-23 16:25N 39°24' W 000°16'9 9.5
2016-Jul-23 15:30N 39°30' W 000°08'7815.7
2016-Jul-23 10:33N 40°22' E 001°08'1414.4
2016-Jul-23 09:33N 40°32' E 001°21'2019.4
2016-Jul-23 08:33N 40°47' E 001°38'2020.2
2016-Jul-23 07:33N 41°02' E 001°55'1817.9
2016-Jul-23 06:33N 41°16' E 002°10'5 1.7
2016-Jul-23 03:33N 41°21' E 002°10'0 0.0
2016-Jul-23 02:18N 41°21' E 002°10'0 0.0
2016-Jul-23 01:06N 41°21' E 002°10'0 0.0
2016-Jul-23 00:24N 41°21' E 002°10'0 0.0
2016-Jul-22 23:30N 41°21' E 002°10'0 0.0
2016-Jul-22 22:30N 41°21' E 002°10'0 0.0
2016-Jul-22 21:24N 41°21' E 002°10'0 0.0
2016-Jul-22 20:18N 41°21' E 002°10'0 0.0
2016-Jul-22 18:18N 41°21' E 002°10'1 1.4
2016-Jul-22 17:33N 41°20' E 002°10'6 5.7
2016-Jul-22 16:33N 41°17' E 002°17'1 0.8
2016-Jul-22 15:33N 41°17' E 002°18'0 0.1
2016-Jul-22 14:33N 41°17' E 002°18'1 1.2
2016-Jul-22 13:32N 41°17' E 002°16'4 4.5
2016-Jul-22 12:33N 41°17' E 002°22'1313.2
2016-Jul-22 11:33N 41°25' E 002°36'1615.9
2016-Jul-22 10:33N 41°34' E 002°54'1717.2
2016-Jul-22 09:33N 41°43' E 003°13'2017.8
2016-Jul-22 08:24N 41°58' E 003°32'9317.9
2016-Jul-22 03:12N 43°08' E 004°56'913.8
2016-Jul-22 02:33N 43°16' E 004°60'1110.6
2016-Jul-22 01:34N 43°25' E 004°51'0 0.0
2016-Jul-22 00:33N 43°25' E 004°51'0 0.0
2016-Jul-21 23:33N 43°25' E 004°51'0 0.0
2016-Jul-21 22:33N 43°25' E 004°51'0 0.0
2016-Jul-21 21:33N 43°25' E 004°51'0 0.0
2016-Jul-21 20:30N 43°25' E 004°51'0 0.0
2016-Jul-21 19:33N 43°25' E 004°51'0 0.0
2016-Jul-21 18:30N 43°25' E 004°51'0 0.0
2016-Jul-21 17:27N 43°25' E 004°51'0 0.0
2016-Jul-21 16:33N 43°25' E 004°51'0 0.0
2016-Jul-21 15:27N 43°25' E 004°51'0 0.0
2016-Jul-21 14:33N 43°25' E 004°51'0 0.0
2016-Jul-21 13:33N 43°25' E 004°51'2 1.7
2016-Jul-21 12:33N 43°24' E 004°53'9 8.7
2016-Jul-21 11:33N 43°17' E 005°00'1313.1
2016-Jul-21 10:33N 43°06' E 005°10'1614.1
2016-Jul-21 09:26N 42°58' E 005°28'3 0.9
2016-Jul-21 06:33N 42°57' E 005°32'6 6.0
2016-Jul-21 05:33N 42°55' E 005°39'1312.8
2016-Jul-21 04:33N 42°51' E 005°56'1814.6
2016-Jul-21 03:20N 42°51' E 006°20'1113.7
2016-Jul-21 02:33N 42°54' E 006°34'1515.0
2016-Jul-21 01:32N 43°03' E 006°51'1514.9
2016-Jul-21 00:33N 43°12' E 007°08'1514.7
2016-Jul-20 23:33N 43°21' E 007°24'2014.6
2016-Jul-20 22:11N 43°33' E 007°46'1014.7
2016-Jul-20 21:31N 43°38' E 007°57'1514.4
2016-Jul-20 20:28N 43°47' E 008°14'1314.3
2016-Jul-20 19:33N 43°56' E 008°27'1515.0
2016-Jul-20 18:33N 44°07' E 008°41'1817.7
2016-Jul-20 17:33N 44°20' E 008°58'5 4.7
2016-Jul-20 16:33N 44°24' E 008°54'0 0.0
2016-Jul-20 15:33N 44°24' E 008°54'0 0.0
2016-Jul-20 14:33N 44°24' E 008°54'0 0.0
2016-Jul-20 13:33N 44°24' E 008°54'0 0.0
2016-Jul-20 12:30N 44°24' E 008°54'0 0.0
2016-Jul-20 11:30N 44°24' E 008°54'0 0.0
2016-Jul-20 10:30N 44°24' E 008°54'0 0.0
2016-Jul-20 09:33N 44°24' E 008°54'0 0.0
2016-Jul-20 08:33N 44°24' E 008°54'0 0.0
2016-Jul-20 07:33N 44°24' E 008°54'0 0.0
2016-Jul-20 06:33N 44°24' E 008°54'0 0.0
2016-Jul-20 05:33N 44°24' E 008°54'0 0.0
2016-Jul-20 04:33N 44°24' E 008°54'0 0.0
2016-Jul-20 03:33N 44°24' E 008°54'0 0.0
2016-Jul-20 02:33N 44°24' E 008°54'0 0.0
2016-Jul-20 01:33N 44°24' E 008°54'0 0.0
2016-Jul-20 00:33N 44°24' E 008°54'0 0.0
2016-Jul-19 23:33N 44°24' E 008°54'0 0.0
2016-Jul-19 22:33N 44°24' E 008°54'0 0.0
2016-Jul-19 21:33N 44°24' E 008°54'0 0.0
2016-Jul-19 20:30N 44°24' E 008°54'0 0.0
2016-Jul-19 19:33N 44°24' E 008°54'4 3.6
2016-Jul-19 18:33N 44°22' E 008°58'1515.0
2016-Jul-19 17:33N 44°10' E 009°11'2020.3
2016-Jul-19 16:33N 43°55' E 009°29'2020.1
2016-Jul-19 15:33N 43°39' E 009°46'1817.5
2016-Jul-19 14:33N 43°31' E 010°07'9 8.8
2016-Jul-19 13:33N 43°34' E 010°18'0 0.4
2016-Jul-19 12:32N 43°34' E 010°18'0 0.0
2016-Jul-19 11:29N 43°34' E 010°18'0 0.0
2016-Jul-19 10:29N 43°34' E 010°18'0 0.0
2016-Jul-19 09:26N 43°34' E 010°18'0 0.0
2016-Jul-19 08:32N 43°34' E 010°18'0 0.0
2016-Jul-19 07:32N 43°34' E 010°18'0 0.0
2016-Jul-19 04:32N 43°34' E 010°18'0 0.0
2016-Jul-19 03:32N 43°34' E 010°18'0 0.0
2016-Jul-19 02:32N 43°34' E 010°18'0 0.0
2016-Jul-19 01:32N 43°34' E 010°18'0 0.0
2016-Jul-19 00:32N 43°34' E 010°18'0 0.0
2016-Jul-18 23:32N 43°34' E 010°18'0 0.0
2016-Jul-18 22:32N 43°34' E 010°18'0 0.0
2016-Jul-18 21:32N 43°34' E 010°18'0 0.0
2016-Jul-18 20:17N 43°34' E 010°18'0 0.0
2016-Jul-18 19:32N 43°34' E 010°18'0 0.0
2016-Jul-18 18:29N 43°34' E 010°18'0 0.0
2016-Jul-18 17:29N 43°34' E 010°18'0 0.0
2016-Jul-18 16:32N 43°34' E 010°18'0 0.0
2016-Jul-18 15:29N 43°34' E 010°18'0 0.0
2016-Jul-18 14:32N 43°34' E 010°18'0 0.0
2016-Jul-18 13:29N 43°34' E 010°18'0 0.0
2016-Jul-18 12:32N 43°34' E 010°18'0 0.0
2016-Jul-18 11:32N 43°34' E 010°18'0 0.0
2016-Jul-18 10:26N 43°34' E 010°18'0 0.0
2016-Jul-18 09:32N 43°34' E 010°18'4 3.9
2016-Jul-18 08:33N 43°31' E 010°16'1616.4
2016-Jul-18 07:33N 43°19' E 010°00'1817.5
2016-Jul-18 06:33N 43°14' E 009°37'1919.6
2016-Jul-18 05:33N 43°09' E 009°11'2020.1
2016-Jul-18 04:33N 42°58' E 008°48'2121.1
2016-Jul-18 03:33N 42°43' E 008°27'2121.0
2016-Jul-18 02:33N 42°28' E 008°08'4220.7
2016-Jul-18 00:31N 41°58' E 007°28'22820.3
2016-Jul-17 13:17N 39°21' E 003°50'1620.5
2016-Jul-17 12:30N 39°12' E 003°32'1920.5
2016-Jul-17 11:33N 39°02' E 003°11'2020.4
2016-Jul-17 10:33N 38°51' E 002°49'2020.3
2016-Jul-17 09:33N 38°40' E 002°27'2020.0
2016-Jul-17 08:33N 38°30' E 002°05'37019.4
2016-Jul-16 13:30N 36°04' W 005°02'1515.9
2016-Jul-16 12:33N 36°05' W 005°20'5 5.2
2016-Jul-16 11:33N 36°08' W 005°25'0 0.0
2016-Jul-16 10:30N 36°08' W 005°25'0 0.0
2016-Jul-16 09:33N 36°08' W 005°25'0 0.0
2016-Jul-16 08:30N 36°08' W 005°25'0 0.0
2016-Jul-16 07:30N 36°08' W 005°25'0 0.0
2016-Jul-16 06:31N 36°08' W 005°25'0 0.0
2016-Jul-16 04:31N 36°08' W 005°25'0 0.0
2016-Jul-16 03:31N 36°08' W 005°25'0 0.0
2016-Jul-16 02:31N 36°08' W 005°25'0 0.0
2016-Jul-16 01:31N 36°08' W 005°25'0 0.0
2016-Jul-16 00:28N 36°08' W 005°25'0 0.0
2016-Jul-15 23:31N 36°08' W 005°25'0 0.0
2016-Jul-15 22:31N 36°08' W 005°25'0 0.0
2016-Jul-15 21:28N 36°08' W 005°25'0 0.0
2016-Jul-15 20:31N 36°08' W 005°25'1 1.4
2016-Jul-15 19:33N 36°08' W 005°24'5 5.1
2016-Jul-15 18:33N 36°05' W 005°19'1 0.9
2016-Jul-15 17:33N 36°04' W 005°18'3 2.9
2016-Jul-15 16:33N 36°01' W 005°19'8 8.0
2016-Jul-15 15:33N 35°58' W 005°28'  

Dump ship's entire track history